createdAt,value
2023-05-04T00:01:11.646Z,12.90
2023-05-04T00:03:39.870Z,20.40
2023-05-04T00:06:10.465Z,12.75
2023-05-04T00:08:38.438Z,13.15
2023-05-04T00:11:06.252Z,10.38
2023-05-04T00:13:34.145Z,14.07
2023-05-04T00:16:02.559Z,11.85
2023-05-04T00:18:30.594Z,12.25
2023-05-04T00:20:58.428Z,13.73
2023-05-04T00:23:26.614Z,11.90
2023-05-04T00:25:54.630Z,15.02
2023-05-04T00:28:22.620Z,14.32
2023-05-04T00:30:52.918Z,13.77
2023-05-04T00:33:22.524Z,12.65
2023-05-04T00:38:19.389Z,13.48
2023-05-04T00:40:47.291Z,11.98
2023-05-04T00:43:15.207Z,11.73
2023-05-04T00:45:43.082Z,12.82
2023-05-04T00:48:11.323Z,10.80
2023-05-04T00:50:40.422Z,15.50
2023-05-04T00:53:10.886Z,15.25
2023-05-04T00:55:40.952Z,12.90
2023-05-04T00:58:11.739Z,15.63
2023-05-04T01:00:39.804Z,15.40
2023-05-04T01:03:10.421Z,13.05
2023-05-04T01:05:47.089Z,16.73
2023-05-04T01:08:18.709Z,13.15
2023-05-04T01:10:58.414Z,13.98
2023-05-04T01:13:28.364Z,14.45
2023-05-04T01:15:56.453Z,14.55
2023-05-04T01:18:24.472Z,16.55
2023-05-04T01:20:52.460Z,16.70
2023-05-04T01:23:21.129Z,13.45
2023-05-04T01:25:59.884Z,14.95
2023-05-04T01:29:11.343Z,13.30
2023-05-04T01:31:40.581Z,11.55
2023-05-04T01:34:09.260Z,13.95
2023-05-04T01:36:37.421Z,12.77
2023-05-04T01:39:05.557Z,13.00
2023-05-04T01:41:34.677Z,10.00
2023-05-04T01:44:04.049Z,10.32
2023-05-04T01:46:31.998Z,13.15
2023-05-04T01:49:01.044Z,14.48
2023-05-04T01:51:28.951Z,13.57
2023-05-04T01:53:58.146Z,11.05
2023-05-04T01:56:26.358Z,10.05
2023-05-04T01:58:54.372Z,9.57
2023-05-04T02:01:22.309Z,11.20
2023-05-04T02:03:50.412Z,12.73
2023-05-04T02:06:18.583Z,8.32
2023-05-04T02:08:46.950Z,11.05
2023-05-04T02:12:09.463Z,9.85
2023-05-04T02:14:37.911Z,8.90
2023-05-04T02:17:06.751Z,10.23
2023-05-04T02:19:34.677Z,8.38
2023-05-04T02:22:02.760Z,12.20
2023-05-04T02:24:30.714Z,7.75
2023-05-04T02:26:58.899Z,10.07
2023-05-04T02:29:34.429Z,6.90
2023-05-04T02:32:02.586Z,11.25
2023-05-04T02:34:30.716Z,16.73
2023-05-04T02:36:58.999Z,9.63
2023-05-04T02:39:26.877Z,16.45
2023-05-04T02:41:55.698Z,16.92
2023-05-04T02:44:23.695Z,8.55
2023-05-04T02:46:51.650Z,8.13
2023-05-04T02:49:19.630Z,9.02
2023-05-04T02:54:55.605Z,4.55
2023-05-04T02:57:23.696Z,4.13
2023-05-04T02:59:51.603Z,4.63
2023-05-04T03:02:19.594Z,5.43
2023-05-04T03:04:47.705Z,5.60
2023-05-04T03:07:15.840Z,5.85
2023-05-04T03:09:45.971Z,4.82
2023-05-04T03:12:15.950Z,4.88
2023-05-04T03:14:43.948Z,4.95
2023-05-04T03:17:12.404Z,5.10
2023-05-04T03:19:40.732Z,6.05
2023-05-04T03:22:10.334Z,10.30
2023-05-04T03:24:38.245Z,4.13
2023-05-04T03:27:06.316Z,5.25
2023-05-04T03:29:37.515Z,5.90
2023-05-04T03:32:07.102Z,7.60
2023-05-04T03:34:35.967Z,9.10
2023-05-04T03:37:06.367Z,8.35
2023-05-04T03:39:34.457Z,12.52
2023-05-04T03:42:02.848Z,4.50
2023-05-04T03:44:30.896Z,7.20
2023-05-04T03:46:58.847Z,3.42
2023-05-04T03:49:27.268Z,3.60
2023-05-04T03:51:55.449Z,6.53
2023-05-04T03:54:23.850Z,4.05
2023-05-04T03:56:54.225Z,4.55
2023-05-04T04:04:19.930Z,14.73
2023-05-04T04:06:48.078Z,10.07
2023-05-04T04:09:19.054Z,10.43
2023-05-04T04:11:47.535Z,8.15
2023-05-04T04:14:15.468Z,7.65
2023-05-04T04:16:43.592Z,9.75
2023-05-04T04:19:12.100Z,12.15
2023-05-04T04:21:40.147Z,8.70
2023-05-04T04:24:08.340Z,9.88
2023-05-04T04:26:36.378Z,7.22
2023-05-04T04:29:04.581Z,5.57
2023-05-04T04:31:32.763Z,6.45
2023-05-04T04:34:01.051Z,6.15
2023-05-04T04:36:28.934Z,6.00
2023-05-04T04:38:56.996Z,6.53
2023-05-04T04:41:25.333Z,5.57
2023-05-04T04:43:53.313Z,5.13
2023-05-04T04:46:21.193Z,5.43
2023-05-04T04:48:49.404Z,5.05
2023-05-04T04:51:17.559Z,4.80
2023-05-04T04:53:45.709Z,5.22
2023-05-04T04:56:14.071Z,7.55
2023-05-04T04:58:42.825Z,6.45
2023-05-04T05:01:10.841Z,5.53
2023-05-04T05:03:38.858Z,5.45
2023-05-04T05:06:06.824Z,5.28
2023-05-04T05:08:35.161Z,5.40
2023-05-04T05:11:04.245Z,6.07
2023-05-04T05:13:32.416Z,5.85
2023-05-04T05:16:00.519Z,12.02
2023-05-04T05:18:29.538Z,7.65
2023-05-04T05:20:58.019Z,7.78
2023-05-04T05:23:26.002Z,7.45
2023-05-04T05:25:53.995Z,6.80
2023-05-04T05:28:22.193Z,11.50
2023-05-04T05:30:52.355Z,28.70
2023-05-04T05:33:20.557Z,15.55
2023-05-04T05:35:48.394Z,9.55
2023-05-04T05:38:17.853Z,9.25
2023-05-04T05:40:45.846Z,6.07
2023-05-04T05:43:13.824Z,8.48
2023-05-04T05:45:41.888Z,5.72
2023-05-04T05:48:09.792Z,6.10
2023-05-04T05:50:38.157Z,5.10
2023-05-04T05:53:06.101Z,4.43
2023-05-04T05:55:34.184Z,4.70
2023-05-04T05:58:02.064Z,6.25
2023-05-04T06:00:30.079Z,3.83
2023-05-04T06:02:58.009Z,5.03
2023-05-04T06:05:26.104Z,7.07
2023-05-04T06:07:54.283Z,7.10
2023-05-04T06:10:22.548Z,6.70
2023-05-04T06:12:50.588Z,5.95
2023-05-04T06:15:18.880Z,5.88
2023-05-04T06:17:49.034Z,6.47
2023-05-04T06:20:17.181Z,5.60
2023-05-04T06:22:45.080Z,8.02
2023-05-04T06:25:13.524Z,6.68
2023-05-04T06:27:41.462Z,6.10
2023-05-04T06:30:10.254Z,6.90
2023-05-04T06:32:38.698Z,7.60
2023-05-04T06:35:09.292Z,5.68
2023-05-04T06:37:37.685Z,5.53
2023-05-04T06:40:07.476Z,5.50
2023-05-04T06:42:35.766Z,4.75
2023-05-04T06:45:03.887Z,4.53
2023-05-04T06:47:36.452Z,7.90
2023-05-04T06:50:12.077Z,4.75
2023-05-04T06:52:45.061Z,4.22
2023-05-04T06:55:14.035Z,5.28
2023-05-04T07:00:10.903Z,4.38
2023-05-04T07:02:38.994Z,5.75
2023-05-04T07:05:07.312Z,4.85
2023-05-04T07:07:35.448Z,12.07
2023-05-04T07:10:03.817Z,5.35
2023-05-04T07:12:32.189Z,9.68
2023-05-04T07:15:00.161Z,5.88
2023-05-04T07:17:28.526Z,4.90
2023-05-04T07:19:56.468Z,5.75
2023-05-04T07:22:24.590Z,5.82
2023-05-04T07:24:52.736Z,6.95
2023-05-04T07:27:20.692Z,5.80
2023-05-04T07:29:48.606Z,6.20
2023-05-04T07:32:17.205Z,8.15
2023-05-04T07:34:46.691Z,9.27
2023-05-04T07:37:16.206Z,5.63
2023-05-04T07:39:44.344Z,4.50
2023-05-04T07:42:12.742Z,5.60
2023-05-04T07:44:41.596Z,5.40
2023-05-04T07:47:09.546Z,6.60
2023-05-04T07:49:37.828Z,6.60
2023-05-04T07:52:06.087Z,4.60
2023-05-04T07:54:34.014Z,5.65
2023-05-04T07:57:05.069Z,8.48
2023-05-04T07:59:33.635Z,5.45
2023-05-04T08:02:01.794Z,4.60
2023-05-04T08:04:29.852Z,5.13
2023-05-04T08:06:57.762Z,5.03
2023-05-04T08:09:25.760Z,6.38
2023-05-04T08:11:53.914Z,5.75
2023-05-04T08:14:24.783Z,5.90
2023-05-04T08:16:52.767Z,5.97
2023-05-04T08:19:20.715Z,3.50
2023-05-04T08:21:48.685Z,4.00
2023-05-04T08:24:18.771Z,4.88
2023-05-04T08:26:55.564Z,4.25
2023-05-04T08:29:29.217Z,4.43
2023-05-04T08:34:27.515Z,3.90
2023-05-04T08:36:55.668Z,5.25
2023-05-04T08:39:26.211Z,5.53
2023-05-04T08:41:54.625Z,5.90
2023-05-04T08:44:23.533Z,6.50
2023-05-04T08:46:53.860Z,6.97
2023-05-04T08:49:23.543Z,7.60
2023-05-04T08:51:52.223Z,5.47
2023-05-04T08:54:21.727Z,6.15
2023-05-04T08:56:52.888Z,6.18
2023-05-04T08:59:23.325Z,4.72
2023-05-04T09:01:58.978Z,5.82
2023-05-04T09:04:29.248Z,7.18
2023-05-04T09:06:58.894Z,6.22
2023-05-04T09:09:28.992Z,7.13
2023-05-04T09:11:57.117Z,4.68
2023-05-04T09:14:33.284Z,8.55
2023-05-04T09:17:02.606Z,8.20
2023-05-04T09:19:34.921Z,6.72
2023-05-04T09:22:14.471Z,7.72
2023-05-04T09:24:42.376Z,6.50
2023-05-04T09:27:11.953Z,9.00
2023-05-04T09:29:42.640Z,11.63
2023-05-04T09:32:15.470Z,8.25
2023-05-04T09:34:54.268Z,6.88
2023-05-04T09:37:23.132Z,7.20
2023-05-04T09:39:59.012Z,7.60
2023-05-04T09:42:27.262Z,5.80
2023-05-04T09:45:06.577Z,8.30
2023-05-04T09:47:37.519Z,7.40
2023-05-04T09:50:12.217Z,6.88
2023-05-04T09:52:42.325Z,8.43
2023-05-04T09:55:18.194Z,8.25
2023-05-04T09:57:48.248Z,7.88
2023-05-04T10:00:18.223Z,6.82
2023-05-04T10:02:48.386Z,7.57
2023-05-04T10:05:18.853Z,5.93
2023-05-04T10:07:47.426Z,5.95
2023-05-04T10:10:15.967Z,7.55
2023-05-04T10:12:47.131Z,6.82
2023-05-04T10:15:17.542Z,6.47
2023-05-04T10:17:58.081Z,7.50
2023-05-04T10:20:28.635Z,12.93
2023-05-04T10:23:08.835Z,12.40
2023-05-04T10:26:05.033Z,9.93
2023-05-04T10:28:43.198Z,9.13
2023-05-04T10:31:11.640Z,8.13
2023-05-04T10:33:41.036Z,8.30
2023-05-04T10:36:10.030Z,7.45
2023-05-04T10:38:40.613Z,8.27
2023-05-04T10:41:19.112Z,15.05
2023-05-04T10:43:51.111Z,8.02
2023-05-04T10:46:23.033Z,8.52
2023-05-04T10:48:51.788Z,8.63
2023-05-04T10:51:30.156Z,7.35
2023-05-04T10:54:05.426Z,8.60
2023-05-04T10:56:33.544Z,8.60
2023-05-04T10:59:09.266Z,9.57
2023-05-04T11:01:46.744Z,8.70
2023-05-04T11:04:24.620Z,8.52
2023-05-04T11:07:08.861Z,7.38
2023-05-04T11:09:42.422Z,10.10
2023-05-04T11:12:13.465Z,8.40
2023-05-04T11:14:43.442Z,9.00
2023-05-04T11:17:27.612Z,8.57
2023-05-04T11:19:56.932Z,9.80
2023-05-04T11:22:24.826Z,8.90
2023-05-04T11:25:01.668Z,8.52
2023-05-04T11:27:30.550Z,8.43
2023-05-04T11:30:04.940Z,11.23
2023-05-04T11:32:38.571Z,9.05
2023-05-04T11:35:25.140Z,8.60
2023-05-04T11:37:53.973Z,8.75
2023-05-04T11:40:23.959Z,9.43
2023-05-04T11:42:57.230Z,8.02
2023-05-04T11:45:29.175Z,8.57
2023-05-04T11:47:58.752Z,8.25
2023-05-04T11:50:28.931Z,10.25
2023-05-04T11:53:12.254Z,10.30
2023-05-04T11:55:42.100Z,10.32
2023-05-04T11:58:11.876Z,8.50
2023-05-04T12:00:42.286Z,8.32
2023-05-04T12:03:19.104Z,11.20
2023-05-04T12:05:52.498Z,10.60
2023-05-04T12:08:35.225Z,8.73
2023-05-04T12:11:13.740Z,8.95
2023-05-04T12:13:42.971Z,9.43
2023-05-04T12:16:18.559Z,11.80
2023-05-04T12:18:47.732Z,9.80
2023-05-04T12:21:18.920Z,9.02
2023-05-04T12:23:48.035Z,12.55
2023-05-04T12:26:18.993Z,9.27
2023-05-04T12:28:47.769Z,9.40
2023-05-04T12:31:16.235Z,10.60
2023-05-04T12:33:44.302Z,9.10
2023-05-04T12:36:12.440Z,10.55
2023-05-04T12:38:40.286Z,9.90
2023-05-04T12:41:10.980Z,8.73
2023-05-04T12:43:39.243Z,11.50
2023-05-04T12:46:07.789Z,11.27
2023-05-04T12:48:35.829Z,9.18
2023-05-04T12:51:05.255Z,13.13
2023-05-04T12:53:33.579Z,8.70
2023-05-04T12:56:02.631Z,13.18
2023-05-04T12:58:31.417Z,9.45
2023-05-04T13:03:28.242Z,12.35
2023-05-04T13:05:57.801Z,15.95
2023-05-04T13:08:25.973Z,17.15
2023-05-04T13:10:53.981Z,10.00
2023-05-04T13:13:26.401Z,10.40
2023-05-04T13:15:54.805Z,10.35
2023-05-04T13:18:27.538Z,9.07
2023-05-04T13:20:57.058Z,12.30
2023-05-04T13:23:25.354Z,13.48
2023-05-04T13:25:53.798Z,12.02
2023-05-04T13:28:21.734Z,11.60
2023-05-04T13:30:49.835Z,10.43
2023-05-04T13:33:28.977Z,11.35
2023-05-04T13:35:58.821Z,10.00
2023-05-04T13:40:56.291Z,27.17
2023-05-04T13:43:25.578Z,15.80
2023-05-04T13:45:53.904Z,27.67
2023-05-04T13:48:21.729Z,33.72
2023-05-04T13:50:49.798Z,30.80
2023-05-04T13:53:17.787Z,17.30
2023-05-04T13:55:46.350Z,13.70
2023-05-04T13:58:14.359Z,11.57
2023-05-04T14:00:43.529Z,10.90
2023-05-04T14:03:11.827Z,14.27
2023-05-04T14:05:40.192Z,11.23
2023-05-04T14:08:08.269Z,13.00
2023-05-04T14:10:37.658Z,10.05
2023-05-04T14:13:05.838Z,20.33
2023-05-04T14:15:33.980Z,12.57
2023-05-04T14:18:02.514Z,11.63
2023-05-04T14:20:30.634Z,16.73
2023-05-04T14:22:58.630Z,13.02
2023-05-04T14:25:27.013Z,15.70
2023-05-04T14:27:55.032Z,14.43
2023-05-04T14:30:23.145Z,14.68
2023-05-04T14:32:55.402Z,12.27
2023-05-04T14:35:23.590Z,12.07
2023-05-04T14:37:51.881Z,14.38
2023-05-04T14:40:19.926Z,10.82
2023-05-04T14:42:48.232Z,18.73
2023-05-04T14:45:17.415Z,16.95
2023-05-04T14:47:45.715Z,22.25
2023-05-04T14:50:14.045Z,19.98
2023-05-04T14:52:42.318Z,18.67
2023-05-04T14:55:10.527Z,16.50
2023-05-04T14:57:38.614Z,12.68
2023-05-04T15:00:09.106Z,13.05
2023-05-04T15:02:41.808Z,8.98
2023-05-04T15:05:12.769Z,9.30
2023-05-04T15:07:41.215Z,9.90
2023-05-04T15:10:10.626Z,9.02
2023-05-04T15:12:40.502Z,9.35
2023-05-04T15:15:09.460Z,10.90
2023-05-04T15:17:37.994Z,9.95
2023-05-04T15:20:07.945Z,5.35
2023-05-04T15:22:36.717Z,6.90
2023-05-04T15:25:05.896Z,10.07
2023-05-04T15:27:34.448Z,10.07
2023-05-04T15:32:33.089Z,8.30
2023-05-04T15:35:05.955Z,5.65
2023-05-04T15:37:35.270Z,7.25
2023-05-04T15:40:05.006Z,4.93
2023-05-04T15:42:33.809Z,7.38
2023-05-04T15:45:02.356Z,5.53
2023-05-04T15:47:32.385Z,5.10
2023-05-04T15:50:00.974Z,5.03
2023-05-04T15:52:29.399Z,7.45
2023-05-04T15:55:04.235Z,8.38
2023-05-04T15:57:38.073Z,6.28
2023-05-04T16:00:07.879Z,11.77
2023-05-04T16:02:36.508Z,8.85
2023-05-04T16:05:05.188Z,9.43
2023-05-04T16:07:34.554Z,7.32
2023-05-04T16:10:03.220Z,6.22
2023-05-04T16:12:31.675Z,8.32
2023-05-04T16:15:00.143Z,9.15
2023-05-04T16:17:29.414Z,16.70
2023-05-04T16:19:57.942Z,12.13
2023-05-04T16:22:26.301Z,10.82
2023-05-04T16:24:54.913Z,5.22
2023-05-04T16:27:29.220Z,5.75
2023-05-04T16:29:57.957Z,17.85
2023-05-04T16:32:26.311Z,25.23
2023-05-04T16:34:54.981Z,13.20
2023-05-04T16:37:23.344Z,10.07
2023-05-04T16:39:51.843Z,8.32
2023-05-04T16:42:21.627Z,8.32
2023-05-04T16:44:50.461Z,9.77
2023-05-04T16:47:18.970Z,9.82
2023-05-04T16:49:47.299Z,11.35
2023-05-04T16:52:15.932Z,10.70
2023-05-04T16:54:44.297Z,7.55
2023-05-04T16:57:12.781Z,6.72
2023-05-04T16:59:41.504Z,6.85
2023-05-04T17:02:09.931Z,6.15
2023-05-04T17:04:38.369Z,5.22
2023-05-04T17:07:08.770Z,7.65
2023-05-04T17:09:39.193Z,13.57
2023-05-04T17:12:07.582Z,7.65
2023-05-04T17:14:36.059Z,9.68
2023-05-04T17:17:04.710Z,8.15
2023-05-04T17:22:01.722Z,12.07
2023-05-04T17:24:30.310Z,13.02
2023-05-04T17:26:58.996Z,11.93
2023-05-04T17:29:27.430Z,10.60
2023-05-04T17:31:56.144Z,9.52
2023-05-04T17:34:24.501Z,8.85
2023-05-04T17:39:22.535Z,13.50
2023-05-04T17:41:51.407Z,12.80
2023-05-04T17:44:20.317Z,11.05
2023-05-04T17:46:48.844Z,11.02
2023-05-04T17:49:19.634Z,12.35
2023-05-04T17:51:49.647Z,8.15
2023-05-04T17:54:18.091Z,17.80
2023-05-04T17:56:46.708Z,13.32
2023-05-04T17:59:17.108Z,13.37
2023-05-04T18:01:46.305Z,27.40
2023-05-04T18:04:14.612Z,30.05
2023-05-04T18:06:43.359Z,19.02
2023-05-04T18:11:40.416Z,20.05
2023-05-04T18:14:08.922Z,15.35
2023-05-04T18:16:39.603Z,13.77
2023-05-04T18:19:08.493Z,8.38
2023-05-04T18:24:08.091Z,9.75
2023-05-04T18:26:36.700Z,9.63
2023-05-04T18:29:17.971Z,9.30
2023-05-04T18:31:48.828Z,11.80
2023-05-04T18:34:17.589Z,10.25
2023-05-04T18:36:48.032Z,10.00
2023-05-04T18:39:17.882Z,11.52
2023-05-04T18:41:46.562Z,9.73
2023-05-04T18:44:18.444Z,7.93
2023-05-04T18:46:47.183Z,7.55
2023-05-04T18:49:16.054Z,5.55
2023-05-04T18:51:44.600Z,5.70
2023-05-04T18:54:16.170Z,6.05
2023-05-04T18:56:44.991Z,5.60
2023-05-04T18:59:13.299Z,5.22
2023-05-04T19:01:41.889Z,4.50
2023-05-04T19:04:10.452Z,6.03
2023-05-04T19:06:38.568Z,6.40
2023-05-04T19:09:08.207Z,6.97
2023-05-04T19:11:36.535Z,5.43
2023-05-04T19:14:04.616Z,6.20
2023-05-04T19:16:33.003Z,5.75
2023-05-04T19:19:01.088Z,5.55
2023-05-04T19:21:29.778Z,9.57
2023-05-04T19:23:57.878Z,10.90
2023-05-04T19:26:26.081Z,7.97
2023-05-04T19:28:54.103Z,7.05
2023-05-04T19:31:23.013Z,13.65
2023-05-04T19:33:52.448Z,15.55
2023-05-04T19:36:20.546Z,20.40
2023-05-04T19:38:48.979Z,9.50
2023-05-04T19:41:17.599Z,8.65
2023-05-04T19:43:46.170Z,5.93
2023-05-04T19:46:14.652Z,6.70
2023-05-04T19:48:43.971Z,9.65
2023-05-04T19:51:12.678Z,10.75
2023-05-04T19:53:41.068Z,12.77
2023-05-04T19:56:09.303Z,11.32
2023-05-04T19:58:37.942Z,7.47
2023-05-04T20:01:06.045Z,9.43
2023-05-04T20:03:34.025Z,10.98
2023-05-04T20:06:03.845Z,9.55
2023-05-04T20:08:31.897Z,5.95
2023-05-04T20:11:00.216Z,5.72
2023-05-04T20:13:28.454Z,6.40
2023-05-04T20:15:57.059Z,5.55
2023-05-04T20:18:25.455Z,4.72
2023-05-04T20:20:53.636Z,5.43
2023-05-04T20:23:22.527Z,6.40
2023-05-04T20:25:51.379Z,5.65
2023-05-04T20:28:19.380Z,6.25
2023-05-04T20:30:47.455Z,11.93
2023-05-04T20:33:15.351Z,13.98
2023-05-04T20:35:44.469Z,8.57
2023-05-04T20:38:12.785Z,6.70
2023-05-04T20:40:40.823Z,7.43
2023-05-04T20:43:08.737Z,6.97
2023-05-04T20:45:36.715Z,6.50
2023-05-04T20:48:05.004Z,5.13
2023-05-04T20:50:33.243Z,5.32
2023-05-04T20:53:03.957Z,6.03
2023-05-04T20:55:32.154Z,6.53
2023-05-04T20:58:00.250Z,6.07
2023-05-04T21:00:32.989Z,6.43
2023-05-04T21:03:01.877Z,5.80
2023-05-04T21:05:29.841Z,5.97
2023-05-04T21:07:57.828Z,4.93
2023-05-04T21:10:25.773Z,5.95
2023-05-04T21:12:57.734Z,4.93
2023-05-04T21:15:26.818Z,5.53
2023-05-04T21:17:54.834Z,6.05
2023-05-04T21:20:22.925Z,6.47
2023-05-04T21:22:51.007Z,5.63
2023-05-04T21:25:19.049Z,5.85
2023-05-04T21:27:47.084Z,6.18
2023-05-04T21:30:15.657Z,5.97
2023-05-04T21:32:43.924Z,5.78
2023-05-04T21:35:12.051Z,5.88
2023-05-04T21:37:40.272Z,5.22
2023-05-04T21:40:09.378Z,7.13
2023-05-04T21:42:37.501Z,5.93
2023-05-04T21:45:06.518Z,8.05
2023-05-04T21:50:02.373Z,6.20
2023-05-04T21:52:30.433Z,5.30
2023-05-04T21:54:58.360Z,5.65
2023-05-04T21:57:26.599Z,5.13
2023-05-04T21:59:54.519Z,4.25
2023-05-04T22:02:22.379Z,4.78
2023-05-04T22:04:50.320Z,5.60
2023-05-04T22:07:18.355Z,5.85
2023-05-04T22:09:46.164Z,6.22
2023-05-04T22:12:14.062Z,5.97
2023-05-04T22:14:44.057Z,4.78
2023-05-04T22:17:11.951Z,4.57
2023-05-04T22:19:39.878Z,5.38
2023-05-04T22:22:07.681Z,5.32
2023-05-04T22:24:35.984Z,4.30
2023-05-04T22:27:03.991Z,5.18
2023-05-04T22:29:35.128Z,5.45
2023-05-04T22:32:02.980Z,5.55
2023-05-04T22:34:30.920Z,6.20
2023-05-04T22:36:58.736Z,5.68
2023-05-04T22:39:26.685Z,5.00
2023-05-04T22:41:54.614Z,6.28
2023-05-04T22:44:22.417Z,6.28
2023-05-04T22:46:50.250Z,6.00
2023-05-04T22:49:18.398Z,5.15
2023-05-04T22:51:46.329Z,5.93
2023-05-04T22:54:14.231Z,5.50
2023-05-04T22:56:42.107Z,5.38
2023-05-04T22:59:10.025Z,5.10
2023-05-04T23:01:42.738Z,7.85
2023-05-04T23:04:11.652Z,5.20
2023-05-04T23:09:07.144Z,4.72
2023-05-04T23:11:35.044Z,5.40
2023-05-04T23:14:02.990Z,6.53
2023-05-04T23:16:31.239Z,5.18
2023-05-04T23:18:59.524Z,6.05
2023-05-04T23:21:27.542Z,5.55
2023-05-04T23:23:55.510Z,5.82
2023-05-04T23:26:23.963Z,5.40
2023-05-04T23:28:51.996Z,5.63
2023-05-04T23:31:20.136Z,5.70
2023-05-04T23:33:48.079Z,5.70
2023-05-04T23:36:15.896Z,6.75
2023-05-04T23:38:43.791Z,5.75
2023-05-04T23:41:12.740Z,6.38
2023-05-04T23:43:40.762Z,5.57
2023-05-04T23:46:08.815Z,4.78
2023-05-04T23:48:36.606Z,4.60
2023-05-04T23:51:04.937Z,5.82
2023-05-04T23:53:34.052Z,5.07
2023-05-04T23:56:04.269Z,6.40
2023-05-04T23:58:33.805Z,4.57
